Map

Track Data

SID SEASON NUMBER BASIN SUBBASIN NAME ISO_TIME NATURE LAT LON WMO_WIND WMO_PRES WMO_AGENCY TRACK_TYPE DIST2LAND LANDFALL IFLAG USA_AGENCY USA_ATCF_ID USA_LAT USA_LON USA_RECORD USA_STATUS USA_WIND USA_PRES USA_SSHS USA_R34_NE USA_R34_SE USA_R34_SW USA_R34_NW USA_R50_NE USA_R50_SE USA_R50_SW USA_R50_NW USA_R64_NE USA_R64_SE USA_R64_SW USA_R64_NW USA_POCI USA_ROCI USA_RMW USA_EYE TOKYO_LAT TOKYO_LON TOKYO_GRADE TOKYO_WIND TOKYO_PRES TOKYO_R50_DIR TOKYO_R50_LONG TOKYO_R50_SHORT TOKYO_R30_DIR TOKYO_R30_LONG TOKYO_R30_SHORT TOKYO_LAND CMA_LAT CMA_LON CMA_CAT CMA_WIND CMA_PRES HKO_LAT HKO_LON HKO_CAT HKO_WIND HKO_PRES NEWDELHI_LAT NEWDELHI_LON NEWDELHI_GRADE NEWDELHI_WIND NEWDELHI_PRES NEWDELHI_CI NEWDELHI_DP NEWDELHI_POCI REUNION_LAT REUNION_LON REUNION_TYPE REUNION_WIND REUNION_PRES REUNION_TNUM REUNION_CI REUNION_RMW REUNION_R34_NE REUNION_R34_SE REUNION_R34_SW REUNION_R34_NW REUNION_R50_NE REUNION_R50_SE REUNION_R50_SW REUNION_R50_NW REUNION_R64_NE REUNION_R64_SE REUNION_R64_SW REUNION_R64_NW BOM_LAT BOM_LON BOM_TYPE BOM_WIND BOM_PRES BOM_TNUM BOM_CI BOM_RMW BOM_R34_NE BOM_R34_SE BOM_R34_SW BOM_R34_NW BOM_R50_NE BOM_R50_SE BOM_R50_SW BOM_R50_NW BOM_R64_NE BOM_R64_SE BOM_R64_SW BOM_R64_NW BOM_ROCI BOM_POCI BOM_EYE BOM_POS_METHOD BOM_PRES_METHOD NADI_LAT NADI_LON NADI_CAT NADI_WIND NADI_PRES WELLINGTON_LAT WELLINGTON_LON WELLINGTON_WIND WELLINGTON_PRES DS824_LAT DS824_LON DS824_STAGE DS824_WIND DS824_PRES TD9636_LAT TD9636_LON TD9636_STAGE TD9636_WIND TD9636_PRES TD9635_LAT TD9635_LON TD9635_WIND TD9635_PRES TD9635_ROCI NEUMANN_LAT NEUMANN_LON NEUMANN_CLASS NEUMANN_WIND NEUMANN_PRES MLC_LAT MLC_LON MLC_CLASS MLC_WIND MLC_PRES USA_GUST BOM_GUST BOM_GUST_PER REUNION_GUST REUNION_GUST_PER USA_SEAHGT USA_SEARAD_NE USA_SEARAD_SE USA_SEARAD_SW USA_SEARAD_NW STORM_SPEED STORM_DIR
1912330N06147 1912 67 WP MM NOT_NAMED 1912-11-24 16:00:00 NR 5.60000 147.400 main 862 862 __________O___ -1 5.60000 147.400 7 4 269
1912330N06147 1912 67 WP MM NOT_NAMED 1912-11-24 18:00:00 NR 5.59808 147.250 main 862 862 __________P___ -1 5.59808 147.250 7 5 270
1912330N06147 1912 67 WP MM NOT_NAMED 1912-11-24 21:00:00 NR 5.60217 146.993 main 862 862 __________P___ -1 5.60217 146.993 7 6 273
1912330N06147 1912 67 WP MM NOT_NAMED 1912-11-25 00:00:00 NR 5.62423 146.657 main 862 862 __________P___ -1 5.62423 146.657 7 8 275
1912330N06147 1912 67 WP MM NOT_NAMED 1912-11-25 03:00:00 NR 5.67492 146.192 main 875 875 __________P___ -1 5.67492 146.192 7 10 277
1912330N06147 1912 67 WP MM NOT_NAMED 1912-11-25 04:00:00 NR 5.70000 146.000 main 876 876 __________O___ -1 5.70000 146.000 7 13 278
1912330N06147 1912 67 WP MM NOT_NAMED 1912-11-25 06:00:00 NR 5.76342 145.556 main 892 893 __________P___ -1 5.76342 145.556 7 15 279
1912330N06147 1912 67 WP MM NOT_NAMED 1912-11-25 09:00:00 NR 5.88366 144.770 main 918 921 __________P___ -1 5.88366 144.770 7 17 279
1912330N06147 1912 67 WP MM NOT_NAMED 1912-11-25 12:00:00 NR 6.01998 143.895 main 956 959 __________P___ -1 6.01998 143.895 7 18 279
1912330N06147 1912 67 WP MM NOT_NAMED 1912-11-25 15:00:00 NR 6.15687 142.995 main 1005 997 __________P___ -1 6.15687 142.995 7 18 279
1912330N06147 1912 67 WP MM NOT_NAMED 1912-11-25 16:00:00 NR 6.20000 142.700 main 997 986 __________O___ -1 6.20000 142.700 7 17 278
1912330N06147 1912 67 WP MM NOT_NAMED 1912-11-25 18:00:00 NR 6.27466 142.164 main 987 962 __________P___ -1 6.27466 142.164 7 16 278
1912330N06147 1912 67 WP MM NOT_NAMED 1912-11-25 21:00:00 NR 6.38063 141.365 main 964 941 __________P___ -1 6.38063 141.365 7 16 277
1912330N06147 1912 67 WP MM NOT_NAMED 1912-11-26 00:00:00 NR 6.47943 140.569 main 946 929 __________P___ -1 6.47943 140.569 7 16 277
1912330N06147 1912 67 WP MM NOT_NAMED 1912-11-26 03:00:00 NR 6.57106 139.769 main 935 920 __________P___ -1 6.57106 139.769 7 16 276
1912330N06147 1912 67 WP MM NOT_NAMED 1912-11-26 04:00:00 NR 6.60000 139.500 main 920 897 __________O___ -1 6.60000 139.500 7 16 275
1912330N06147 1912 67 WP MM NOT_NAMED 1912-11-26 06:00:00 NR 6.64745 138.966 main 897 878 __________P___ -1 6.64745 138.966 7 16 275
1912330N06147 1912 67 WP MM NOT_NAMED 1912-11-26 09:00:00 NR 6.71237 138.159 main 878 861 __________P___ -1 6.71237 138.159 7 16 275
1912330N06147 1912 67 WP MM NOT_NAMED 1912-11-26 12:00:00 NR 6.78100 137.336 main 861 847 __________P___ -1 6.78100 137.336 7 17 275
1912330N06147 1912 67 WP MM NOT_NAMED 1912-11-26 15:00:00 NR 6.86591 136.489 main 857 854 __________P___ -1 6.86591 136.489 7 17 276
1912330N06147 1912 67 WP MM NOT_NAMED 1912-11-26 16:00:00 NR 6.90000 136.200 main 854 852 __________O___ -1 6.90000 136.200 7 18 278
1912330N06147 1912 67 WP MM NOT_NAMED 1912-11-26 18:00:00 NR 6.99586 135.601 main 862 841 __________P___ -1 6.99586 135.601 7 18 280
1912330N06147 1912 67 WP MM NOT_NAMED 1912-11-26 21:00:00 NR 7.15898 134.677 main 848 772 __________P___ -1 7.15898 134.677 7 19 280
1912330N06147 1912 67 WP MM NOT_NAMED 1912-11-27 00:00:00 NR 7.32300 133.740 main 772 684 __________P___ -1 7.32300 133.740 7 19 279
1912330N06147 1912 67 WP MM NOT_NAMED 1912-11-27 03:00:00 NR 7.46297 132.807 main 684 662 __________P___ -1 7.46297 132.807 7 19 278
1912330N06147 1912 67 WP MM NOT_NAMED 1912-11-27 04:00:00 NR 7.50000 132.500 main 651 584 __________O___ -1 7.50000 132.500 7 18 274
1912330N06147 1912 67 WP MM NOT_NAMED 1912-11-27 06:00:00 NR 7.52898 131.905 main 584 485 __________P___ -1 7.52898 131.905 7 18 272
1912330N06147 1912 67 WP MM NOT_NAMED 1912-11-27 09:00:00 NR 7.54095 131.025 main 485 397 __________P___ -1 7.54095 131.025 7 17 271
1912330N06147 1912 67 WP MM NOT_NAMED 1912-11-27 12:00:00 NR 7.54566 130.155 main 397 297 __________P___ -1 7.54566 130.155 7 17 271
1912330N06147 1912 67 WP MM NOT_NAMED 1912-11-27 15:00:00 NR 7.57745 129.289 main 297 264 __________P___ -1 7.57745 129.289 7 17 273
1912330N06147 1912 67 WP MM NOT_NAMED 1912-11-27 16:00:00 NR 7.60000 129.000 main 264 198 __________O___ -1 7.60000 129.000 7 18 276
1912330N06147 1912 67 WP MM NOT_NAMED 1912-11-27 18:00:00 NR 7.66913 128.401 main 198 99 __________P___ -1 7.66913 128.401 7 18 278
1912330N06147 1912 67 WP MM NOT_NAMED 1912-11-27 21:00:00 NR 7.81059 127.502 main 99 22 __________P___ -1 7.81059 127.502 7 18 280
1912330N06147 1912 67 WP MM NOT_NAMED 1912-11-28 00:00:00 NR 7.99443 126.619 main 22 0 __________P___ -1 7.99443 126.619 7 18 283
1912330N06147 1912 67 WP MM NOT_NAMED 1912-11-28 03:00:00 NR 8.21747 125.771 main 0 0 __________P___ -1 8.21747 125.771 7 17 285
1912330N06147 1912 67 WP MM NOT_NAMED 1912-11-28 04:00:00 NR 8.30000 125.500 main 0 0 __________O___ -1 8.30000 125.500 4 16 287
1912330N06147 1912 67 WP MM NOT_NAMED 1912-11-28 06:00:00 NR 8.45256 124.977 main 0 0 __________P___ -1 8.45256 124.977 4 16 288
1912330N06147 1912 67 WP MM NOT_NAMED 1912-11-28 09:00:00 NR 8.71297 124.230 main 24 24 __________P___ -1 8.71297 124.230 4 16 291
1912330N06147 1912 67 WP MM NOT_NAMED 1912-11-28 12:00:00 NR 9.01678 123.518 main 34 0 __________P___ -1 9.01678 123.518 4 15 295
1912330N06147 1912 67 WP MM NOT_NAMED 1912-11-28 15:00:00 NR 9.37015 122.827 main 0 0 __________P___ -1 9.37015 122.827 4 15 298
1912330N06147 1912 67 WP MM NOT_NAMED 1912-11-28 16:00:00 NR 9.50000 122.600 main 0 0 __________O___ -1 9.50000 122.600 4 16 301
1912330N06147 1912 67 WP MM NOT_NAMED 1912-11-28 18:00:00 NR 9.78435 122.126 main 32 32 __________P___ -1 9.78435 122.126 4 17 303
1912330N06147 1912 67 WP MM NOT_NAMED 1912-11-28 21:00:00 NR 10.2554 121.426 main 55 55 __________P___ -1 10.2554 121.426 4 17 306
1912330N06147 1912 67 WP MM NOT_NAMED 1912-11-29 00:00:00 NR 10.7521 120.750 main 114 55 __________P___ -1 10.7521 120.750 4 16 307
1912330N06147 1912 67 WP MM NOT_NAMED 1912-11-29 03:00:00 NR 11.2430 120.106 main 55 34 __________P___ -1 11.2430 120.106 4 16 308
1912330N06147 1912 67 WP MM NOT_NAMED 1912-11-29 04:00:00 NR 11.4000 119.900 main 34 24 __________O___ -1 11.4000 119.900 4 15 306
1912330N06147 1912 67 WP MM NOT_NAMED 1912-11-29 06:00:00 NR 11.6702 119.501 main 44 44 __________P___ -1 11.6702 119.501 4 14 305
1912330N06147 1912 67 WP MM NOT_NAMED 1912-11-29 09:00:00 NR 12.0567 118.935 main 110 110 __________P___ -1 12.0567 118.935 4 13 306
1912330N06147 1912 67 WP MM NOT_NAMED 1912-11-29 12:00:00 NR 12.4428 118.397 main 171 180 __________P___ -1 12.4428 118.397 4 13 308
1912330N06147 1912 67 WP MM NOT_NAMED 1912-11-29 15:00:00 NR 12.8534 117.873 main 249 257 __________P___ -1 12.8534 117.873 4 13 309
1912330N06147 1912 67 WP MM NOT_NAMED 1912-11-29 16:00:00 NR 13.0000 117.700 main 273 273 __________O___ -1 13.0000 117.700 2 15 313
1912330N06147 1912 67 WP MM NOT_NAMED 1912-11-29 18:00:00 NR 13.3635 117.309 main 324 324 __________P___ -1 13.3635 117.309 2 16 315
1912330N06147 1912 67 WP MM NOT_NAMED 1912-11-29 21:00:00 NR 13.9414 116.726 main 380 377 __________P___ -1 13.9414 116.726 2 16 316
1912330N06147 1912 67 WP MM NOT_NAMED 1912-11-30 00:00:00 NR 14.4997 116.186 main 410 410 __________P___ -1 14.4997 116.186 2 14 317
1912330N06147 1912 67 WP MM NOT_NAMED 1912-11-30 03:00:00 NR 14.9726 115.727 main 443 443 __________P___ -1 14.9726 115.727 2 12 317
1912330N06147 1912 67 WP MM NOT_NAMED 1912-11-30 04:00:00 NR 15.1000 115.600 main 450 450 __________O___ -1 15.1000 115.600 2 9 312
1912330N06147 1912 67 WP MM NOT_NAMED 1912-11-30 06:00:00 NR 15.2636 115.397 main 467 467 __________P___ -1 15.2636 115.397 2 6 307
1912330N06147 1912 67 WP MM NOT_NAMED 1912-11-30 09:00:00 NR 15.4084 115.182 main 486 486 __________P___ -1 15.4084 115.182 2 4 303
1912330N06147 1912 67 WP MM NOT_NAMED 1912-11-30 12:00:00 NR 15.4879 115.040 main 506 506 __________P___ -1 15.4879 115.040 2 3 303
1912330N06147 1912 67 WP MM NOT_NAMED 1912-11-30 15:00:00 NR 15.5644 114.934 main 515 515 __________P___ -1 15.5644 114.934 2 3 309
1912330N06147 1912 67 WP MM NOT_NAMED 1912-11-30 16:00:00 NR 15.6000 114.900 main 515 515 __________O___ -1 15.6000 114.900 2 4 317
1912330N06147 1912 67 WP MM NOT_NAMED 1912-11-30 18:00:00 NR 15.7272 114.777 main 525 525 __________P___ -1 15.7272 114.777 2 5 320
1912330N06147 1912 67 WP MM NOT_NAMED 1912-11-30 21:00:00 NR 15.9431 114.603 main 542 514 __________P___ -1 15.9431 114.603 2 5 327
1912330N06147 1912 67 WP MM NOT_NAMED 1912-12-01 00:00:00 NR 16.1782 114.469 main 514 492 __________P___ -1 16.1782 114.469 2 5 338
1912330N06147 1912 67 WP MM NOT_NAMED 1912-12-01 03:00:00 NR 16.4201 114.402 main 492 486 __________P___ -1 16.4201 114.402 2 5 348
1912330N06147 1912 67 WP MM NOT_NAMED 1912-12-01 04:00:00 NR 16.5000 114.400 main 486 475 __________O___ -1 16.5000 114.400 2 5 8
1912330N06147 1912 67 WP MM NOT_NAMED 1912-12-01 06:00:00 NR 16.6552 114.434 main 475 473 __________P___ -1 16.6552 114.434 2 5 21
1912330N06147 1912 67 WP MM NOT_NAMED 1912-12-01 09:00:00 NR 16.8883 114.555 main 483 478 __________P___ -1 16.8883 114.555 2 5 32
1912330N06147 1912 67 WP MM NOT_NAMED 1912-12-01 12:00:00 NR 17.1158 114.732 main 480 480 __________P___ -1 17.1158 114.732 2 6 39
1912330N06147 1912 67 WP MM NOT_NAMED 1912-12-01 15:00:00 NR 17.3317 114.933 main 485 485 __________P___ -1 17.3317 114.933 2 6 42
1912330N06147 1912 67 WP MM NOT_NAMED 1912-12-01 16:00:00 NR 17.4000 115.000 main 488 488 __________O___ -1 17.4000 115.000 2 5 43
1912330N06147 1912 67 WP MM NOT_NAMED 1912-12-01 18:00:00 NR 17.5302 115.129 main 491 486 __________P___ -1 17.5302 115.129 2 5 43
1912330N06147 1912 67 WP MM NOT_NAMED 1912-12-01 21:00:00 NR 17.7122 115.310 main 500 490 __________P___ -1 17.7122 115.310 2 5 44
1912330N06147 1912 67 WP MM NOT_NAMED 1912-12-02 00:00:00 NR 17.8825 115.480 main 490 485 __________P___ -1 17.8825 115.480 2 5 44
1912330N06147 1912 67 WP MM NOT_NAMED 1912-12-02 03:00:00 NR 18.0461 115.646 main 485 479 __________P___ -1 18.0461 115.646 2 5 44
1912330N06147 1912 67 WP MM NOT_NAMED 1912-12-02 04:00:00 NR 18.1000 115.700 main 479 __________O___ -1 18.1000 115.700 2 5 47

Digital Typhoon Data and Search

About IBTrACS Database

This database is a web-friendly format of International Best Track Archive for Climate Stewardship (IBTrACS), a global best track data archive curated by NOAA dating back to 1842.

Updated: 2021-10-21